Munkebo, Denmark
Current Conditions -  °F | °C
As of 11:50 AM on Sunday 21 Dec 2014 (Local Time) from EKSP Reporting Station
Broken Clouds Broken Clouds  
Wind Chill: 38°   Ceiling: 3000
Heat Index: 45°   Visibility: 6mi
Dew Point: 39°   Wind: 14mph
Humidity: 81%   Direction: 240°WSW
Pressure: 30"   Gusts: NA
Location:  55.46°N, 10.56°E
Report Text: EKSP 211050Z 24012KT 9999 BKN030 BKN120 07/04 Q1016
Loading
Personal Weather Stations






























Interactive Weather Map New forecast layout! Learn more

10-Day Weather Forecast

Advertisements
Track Severe Weather on mobile